sensor_id;sensor_type;location;lat;lon;timestamp;pressure;altitude;pressure_sealevel;temperature;humidity
75538;BME280;64121;48.666;8.114;2023-03-24T00:00:24;99042.00;;;16.07;55.01
75538;BME280;64121;48.666;8.114;2023-03-24T00:02:50;99032.38;;;16.08;54.11
75538;BME280;64121;48.666;8.114;2023-03-24T00:05:19;99021.47;;;16.21;53.93
75538;BME280;64121;48.666;8.114;2023-03-24T00:07:45;99027.06;;;16.24;53.93
75538;BME280;64121;48.666;8.114;2023-03-24T00:10:14;99022.59;;;16.30;53.63
75538;BME280;64121;48.666;8.114;2023-03-24T00:12:40;99034.19;;;16.36;53.21
75538;BME280;64121;48.666;8.114;2023-03-24T00:15:08;99018.50;;;16.46;52.95
75538;BME280;64121;48.666;8.114;2023-03-24T00:17:34;99021.31;;;16.46;52.77
75538;BME280;64121;48.666;8.114;2023-03-24T00:19:59;99017.63;;;16.56;51.88
75538;BME280;64121;48.666;8.114;2023-03-24T00:22:26;99011.97;;;16.59;52.34
75538;BME280;64121;48.666;8.114;2023-03-24T00:24:52;99010.31;;;16.65;51.68
75538;BME280;64121;48.666;8.114;2023-03-24T00:27:17;99012.31;;;16.65;51.80
75538;BME280;64121;48.666;8.114;2023-03-24T00:29:43;99006.75;;;16.61;51.61
75538;BME280;64121;48.666;8.114;2023-03-24T00:32:08;99002.69;;;16.66;51.33
75538;BME280;64121;48.666;8.114;2023-03-24T00:34:34;98998.28;;;16.69;51.36
75538;BME280;64121;48.666;8.114;2023-03-24T00:36:59;98989.03;;;16.72;50.21
75538;BME280;64121;48.666;8.114;2023-03-24T00:39:26;98984.63;;;16.74;50.67
75538;BME280;64121;48.666;8.114;2023-03-24T00:41:51;98982.97;;;16.77;50.25
75538;BME280;64121;48.666;8.114;2023-03-24T00:44:17;98968.09;;;16.80;50.32
75538;BME280;64121;48.666;8.114;2023-03-24T00:46:43;98960.03;;;16.82;50.34
75538;BME280;64121;48.666;8.114;2023-03-24T00:49:08;98962.31;;;16.98;49.75
75538;BME280;64121;48.666;8.114;2023-03-24T00:51:36;98962.75;;;16.92;50.60
75538;BME280;64121;48.666;8.114;2023-03-24T00:54:02;98966.25;;;17.04;48.99
75538;BME280;64121;48.666;8.114;2023-03-24T00:56:31;98956.97;;;17.07;49.38
75538;BME280;64121;48.666;8.114;2023-03-24T00:58:56;98958.56;;;17.11;48.62
75538;BME280;64121;48.666;8.114;2023-03-24T01:01:23;98956.13;;;17.13;48.61
75538;BME280;64121;48.666;8.114;2023-03-24T01:03:49;98962.81;;;17.23;48.10
75538;BME280;64121;48.666;8.114;2023-03-24T01:06:15;98963.94;;;17.33;47.80
75538;BME280;64121;48.666;8.114;2023-03-24T01:08:40;98963.19;;;17.25;48.59
75538;BME280;64121;48.666;8.114;2023-03-24T01:11:06;98968.78;;;17.29;48.01
75538;BME280;64121;48.666;8.114;2023-03-24T01:13:33;98970.41;;;17.26;47.80
75538;BME280;64121;48.666;8.114;2023-03-24T01:15:58;98963.94;;;17.29;48.27
75538;BME280;64121;48.666;8.114;2023-03-24T01:18:24;98959.91;;;17.34;47.85
75538;BME280;64121;48.666;8.114;2023-03-24T01:20:50;98950.38;;;17.24;48.20
75538;BME280;64121;48.666;8.114;2023-03-24T01:23:19;98953.19;;;17.24;48.29
75538;BME280;64121;48.666;8.114;2023-03-24T01:25:45;98957.22;;;17.23;48.82
75538;BME280;64121;48.666;8.114;2023-03-24T01:28:11;98948.31;;;17.28;47.48
75538;BME280;64121;48.666;8.114;2023-03-24T01:30:38;98938.63;;;17.33;47.53
75538;BME280;64121;48.666;8.114;2023-03-24T01:33:04;98948.72;;;17.30;47.85
75538;BME280;64121;48.666;8.114;2023-03-24T01:35:29;98950.72;;;17.30;47.52
75538;BME280;64121;48.666;8.114;2023-03-24T01:37:55;98938.16;;;17.38;46.97
75538;BME280;64121;48.666;8.114;2023-03-24T01:40:23;98944.09;;;17.43;46.50
75538;BME280;64121;48.666;8.114;2023-03-24T01:42:49;98948.13;;;17.42;47.18
75538;BME280;64121;48.666;8.114;2023-03-24T01:45:52;98949.16;;;17.25;47.98
75538;BME280;64121;48.666;8.114;2023-03-24T01:48:19;98959.13;;;17.33;46.94
75538;BME280;64121;48.666;8.114;2023-03-24T01:50:49;98951.81;;;17.39;47.01
75538;BME280;64121;48.666;8.114;2023-03-24T01:53:16;98939.69;;;17.42;47.27
75538;BME280;64121;48.666;8.114;2023-03-24T01:55:43;98947.91;;;17.30;47.65
75538;BME280;64121;48.666;8.114;2023-03-24T01:58:09;98941.03;;;17.34;47.29
75538;BME280;64121;48.666;8.114;2023-03-24T02:00:35;98943.03;;;17.34;47.71
75538;BME280;64121;48.666;8.114;2023-03-24T02:03:05;98942.63;;;17.35;47.17
75538;BME280;64121;48.666;8.114;2023-03-24T02:05:33;98945.50;;;17.28;47.55
75538;BME280;64121;48.666;8.114;2023-03-24T02:08:03;98945.84;;;17.34;47.43
75538;BME280;64121;48.666;8.114;2023-03-24T02:10:32;98934.66;;;17.26;48.00
75538;BME280;64121;48.666;8.114;2023-03-24T02:12:58;98927.16;;;17.16;49.12
75538;BME280;64121;48.666;8.114;2023-03-24T02:15:25;98925.22;;;17.10;48.85
75538;BME280;64121;48.666;8.114;2023-03-24T02:18:04;98929.19;;;17.16;48.65
75538;BME280;64121;48.666;8.114;2023-03-24T02:26:59;98903.94;;;17.12;48.93
75538;BME280;64121;48.666;8.114;2023-03-24T02:29:51;98904.38;;;17.07;49.65
75538;BME280;64121;48.666;8.114;2023-03-24T02:32:37;98902.88;;;16.99;49.42
75538;BME280;64121;48.666;8.114;2023-03-24T02:35:38;98893.22;;;17.00;49.37
75538;BME280;64121;48.666;8.114;2023-03-24T02:38:21;98887.97;;;17.02;49.06
75538;BME280;64121;48.666;8.114;2023-03-24T02:40:59;98899.25;;;16.99;49.79
75538;BME280;64121;48.666;8.114;2023-03-24T02:43:39;98892.13;;;16.90;49.44
75538;BME280;64121;48.666;8.114;2023-03-24T02:46:11;98887.75;;;16.86;49.93
75538;BME280;64121;48.666;8.114;2023-03-24T02:48:52;98895.81;;;16.84;49.44
75538;BME280;64121;48.666;8.114;2023-03-24T02:51:25;98886.84;;;16.96;49.39
75538;BME280;64121;48.666;8.114;2023-03-24T02:53:58;98878.06;;;16.90;49.82
75538;BME280;64121;48.666;8.114;2023-03-24T02:56:33;98885.28;;;16.91;49.56
75538;BME280;64121;48.666;8.114;2023-03-24T02:59:02;98890.91;;;16.91;49.91
75538;BME280;64121;48.666;8.114;2023-03-24T03:01:31;98896.56;;;16.88;49.57
75538;BME280;64121;48.666;8.114;2023-03-24T03:04:02;98897.81;;;16.83;49.90
75538;BME280;64121;48.666;8.114;2023-03-24T03:06:32;98900.28;;;16.78;50.65
75538;BME280;64121;48.666;8.114;2023-03-24T03:09:02;98903.44;;;16.83;49.72
75538;BME280;64121;48.666;8.114;2023-03-24T03:11:29;98903.44;;;16.83;49.58
75538;BME280;64121;48.666;8.114;2023-03-24T03:13:58;98895.84;;;16.80;49.82
75538;BME280;64121;48.666;8.114;2023-03-24T03:16:30;98896.66;;;16.81;49.55
75538;BME280;64121;48.666;8.114;2023-03-24T03:18:58;98893.69;;;16.91;49.98
75538;BME280;64121;48.666;8.114;2023-03-24T03:21:27;98898.53;;;16.91;49.90
75538;BME280;64121;48.666;8.114;2023-03-24T03:23:56;98891.31;;;16.90;49.09
75538;BME280;64121;48.666;8.114;2023-03-24T03:26:24;98890.03;;;16.98;49.62
75538;BME280;64121;48.666;8.114;2023-03-24T03:28:54;98894.78;;;17.05;49.13
75538;BME280;64121;48.666;8.114;2023-03-24T03:31:24;98904.13;;;16.94;49.11
75538;BME280;64121;48.666;8.114;2023-03-24T03:33:58;98899.63;;;17.01;48.89
75538;BME280;64121;48.666;8.114;2023-03-24T03:36:27;98904.34;;;17.11;48.77
75538;BME280;64121;48.666;8.114;2023-03-24T03:38:56;98904.94;;;16.95;49.65
75538;BME280;64121;48.666;8.114;2023-03-24T03:41:25;98908.59;;;16.92;50.32
75538;BME280;64121;48.666;8.114;2023-03-24T03:43:52;98908.25;;;16.83;50.31
75538;BME280;64121;48.666;8.114;2023-03-24T03:46:17;98918.75;;;16.79;50.75
75538;BME280;64121;48.666;8.114;2023-03-24T03:48:43;98915.56;;;16.73;51.17
75538;BME280;64121;48.666;8.114;2023-03-24T03:51:10;98913.59;;;16.70;51.72
75538;BME280;64121;48.666;8.114;2023-03-24T03:53:40;98922.50;;;16.61;51.98
75538;BME280;64121;48.666;8.114;2023-03-24T03:56:08;98935.50;;;16.41;53.00
75538;BME280;64121;48.666;8.114;2023-03-24T03:58:34;98933.56;;;16.31;53.36
75538;BME280;64121;48.666;8.114;2023-03-24T04:01:02;98946.06;;;16.23;53.71
75538;BME280;64121;48.666;8.114;2023-03-24T04:03:52;98958.22;;;16.05;54.66
75538;BME280;64121;48.666;8.114;2023-03-24T04:06:28;98955.88;;;15.93;54.88
75538;BME280;64121;48.666;8.114;2023-03-24T04:08:56;98958.75;;;15.83;55.49
75538;BME280;64121;48.666;8.114;2023-03-24T04:11:37;98963.59;;;15.75;55.96
75538;BME280;64121;48.666;8.114;2023-03-24T04:14:21;98967.28;;;15.65;56.38
75538;BME280;64121;48.666;8.114;2023-03-24T04:16:59;98976.09;;;15.60;56.38
75538;BME280;64121;48.666;8.114;2023-03-24T04:19:41;98985.31;;;15.53;56.45
75538;BME280;64121;48.666;8.114;2023-03-24T04:22:22;99004.94;;;15.50;57.05
75538;BME280;64121;48.666;8.114;2023-03-24T04:24:51;99031.41;;;15.38;61.44
75538;BME280;64121;48.666;8.114;2023-03-24T04:27:24;99052.28;;;15.15;62.73
75538;BME280;64121;48.666;8.114;2023-03-24T04:29:52;99063.09;;;14.85;64.68
75538;BME280;64121;48.666;8.114;2023-03-24T04:32:26;99076.69;;;14.62;67.88
75538;BME280;64121;48.666;8.114;2023-03-24T04:34:55;99093.00;;;14.35;69.60
75538;BME280;64121;48.666;8.114;2023-03-24T04:37:24;99093.72;;;14.10;71.33
75538;BME280;64121;48.666;8.114;2023-03-24T04:39:53;99100.06;;;13.97;73.84
75538;BME280;64121;48.666;8.114;2023-03-24T04:42:23;99098.41;;;13.85;74.77
75538;BME280;64121;48.666;8.114;2023-03-24T04:44:49;99079.97;;;13.73;76.41
75538;BME280;64121;48.666;8.114;2023-03-24T04:47:16;99063.16;;;13.62;77.74
75538;BME280;64121;48.666;8.114;2023-03-24T04:49:45;99094.66;;;13.56;78.41
75538;BME280;64121;48.666;8.114;2023-03-24T04:52:10;99100.59;;;13.47;80.62
75538;BME280;64121;48.666;8.114;2023-03-24T04:54:35;99092.53;;;13.35;81.40
75538;BME280;64121;48.666;8.114;2023-03-24T04:57:01;99074.53;;;13.29;82.30
75538;BME280;64121;48.666;8.114;2023-03-24T04:59:26;99075.31;;;13.22;83.23
75538;BME280;64121;48.666;8.114;2023-03-24T05:01:52;99070.78;;;13.11;83.91
75538;BME280;64121;48.666;8.114;2023-03-24T05:04:18;99069.19;;;13.06;84.33
75538;BME280;64121;48.666;8.114;2023-03-24T05:06:46;99073.16;;;13.05;84.30
75538;BME280;64121;48.666;8.114;2023-03-24T05:09:11;99071.56;;;13.04;84.67
75538;BME280;64121;48.666;8.114;2023-03-24T05:11:36;99077.47;;;12.99;84.59
75538;BME280;64121;48.666;8.114;2023-03-24T05:14:02;99065.13;;;13.00;84.61
75538;BME280;64121;48.666;8.114;2023-03-24T05:16:27;99068.34;;;13.02;84.70
75538;BME280;64121;48.666;8.114;2023-03-24T05:18:52;99074.75;;;13.02;84.33
75538;BME280;64121;48.666;8.114;2023-03-24T05:21:18;99080.34;;;13.06;84.54
75538;BME280;64121;48.666;8.114;2023-03-24T05:23:45;99078.72;;;13.01;83.97
75538;BME280;64121;48.666;8.114;2023-03-24T05:26:10;99068.75;;;13.04;84.17
75538;BME280;64121;48.666;8.114;2023-03-24T05:28:36;99073.97;;;13.06;83.73
75538;BME280;64121;48.666;8.114;2023-03-24T05:31:01;99079.53;;;13.02;83.65
75538;BME280;64121;48.666;8.114;2023-03-24T05:33:26;99079.94;;;13.04;83.13
75538;BME280;64121;48.666;8.114;2023-03-24T05:35:52;99070.38;;;13.09;82.80
75538;BME280;64121;48.666;8.114;2023-03-24T05:38:17;99066.00;;;13.11;82.92
75538;BME280;64121;48.666;8.114;2023-03-24T05:40:44;99064.53;;;13.21;82.09
75538;BME280;64121;48.666;8.114;2023-03-24T05:43:09;99052.97;;;13.22;81.27
75538;BME280;64121;48.666;8.114;2023-03-24T05:45:34;99059.00;;;13.31;80.58
75538;BME280;64121;48.666;8.114;2023-03-24T05:48:00;99064.19;;;13.33;81.01
75538;BME280;64121;48.666;8.114;2023-03-24T05:50:25;99057.75;;;13.22;82.08
75538;BME280;64121;48.666;8.114;2023-03-24T05:52:50;99054.47;;;13.16;82.56
75538;BME280;64121;48.666;8.114;2023-03-24T05:55:16;99057.25;;;13.13;82.55
75538;BME280;64121;48.666;8.114;2023-03-24T05:57:43;99058.97;;;13.24;81.61
75538;BME280;64121;48.666;8.114;2023-03-24T06:00:10;99053.38;;;13.24;81.82
75538;BME280;64121;48.666;8.114;2023-03-24T06:02:36;99057.34;;;13.23;82.49
75538;BME280;64121;48.666;8.114;2023-03-24T06:05:01;99055.75;;;13.22;82.42
75538;BME280;64121;48.666;8.114;2023-03-24T06:07:27;99055.38;;;13.24;82.40
75538;BME280;64121;48.666;8.114;2023-03-24T06:09:52;99056.94;;;13.21;82.56
75538;BME280;64121;48.666;8.114;2023-03-24T06:12:17;99057.25;;;13.16;83.00
75538;BME280;64121;48.666;8.114;2023-03-24T06:14:44;99064.03;;;13.12;83.54
75538;BME280;64121;48.666;8.114;2023-03-24T06:17:09;99073.13;;;13.01;85.12
75538;BME280;64121;48.666;8.114;2023-03-24T06:19:35;99069.91;;;12.99;85.63
75538;BME280;64121;48.666;8.114;2023-03-24T06:22:00;99071.09;;;12.98;85.68
75538;BME280;64121;48.666;8.114;2023-03-24T06:24:26;99076.63;;;12.91;86.26
75538;BME280;64121;48.666;8.114;2023-03-24T06:26:51;99081.81;;;12.89;87.05
75538;BME280;64121;48.666;8.114;2023-03-24T06:29:17;99085.38;;;12.86;87.03
75538;BME280;64121;48.666;8.114;2023-03-24T06:31:43;99099.28;;;12.83;87.94
75538;BME280;64121;48.666;8.114;2023-03-24T06:34:09;99102.06;;;12.83;89.41
75538;BME280;64121;48.666;8.114;2023-03-24T06:36:34;99095.63;;;12.75;88.81
75538;BME280;64121;48.666;8.114;2023-03-24T06:38:59;99106.78;;;12.71;89.64
75538;BME280;64121;48.666;8.114;2023-03-24T06:41:25;99104.41;;;12.73;89.60
75538;BME280;64121;48.666;8.114;2023-03-24T06:43:50;99119.97;;;12.78;89.68
75538;BME280;64121;48.666;8.114;2023-03-24T06:46:15;99117.19;;;12.78;90.01
75538;BME280;64121;48.666;8.114;2023-03-24T06:48:42;99124.75;;;12.74;90.42
75538;BME280;64121;48.666;8.114;2023-03-24T06:51:08;99121.19;;;12.81;91.04
75538;BME280;64121;48.666;8.114;2023-03-24T06:53:34;99141.06;;;12.72;90.90
75538;BME280;64121;48.666;8.114;2023-03-24T06:55:59;99128.72;;;12.73;91.37
75538;BME280;64121;48.666;8.114;2023-03-24T06:58:25;99133.47;;;12.69;91.90
75538;BME280;64121;48.666;8.114;2023-03-24T07:00:50;99131.44;;;12.66;92.25
75538;BME280;64121;48.666;8.114;2023-03-24T07:03:16;99139.38;;;12.64;92.76
75538;BME280;64121;48.666;8.114;2023-03-24T07:05:44;99158.50;;;12.62;92.97
75538;BME280;64121;48.666;8.114;2023-03-24T07:08:10;99160.56;;;12.68;92.69
75538;BME280;64121;48.666;8.114;2023-03-24T07:10:36;99155.72;;;12.62;93.35
75538;BME280;64121;48.666;8.114;2023-03-24T07:13:02;99154.97;;;12.65;92.93
75538;BME280;64121;48.666;8.114;2023-03-24T07:15:27;99149.38;;;12.65;92.58
75538;BME280;64121;48.666;8.114;2023-03-24T07:17:52;99159.75;;;12.64;92.93
75538;BME280;64121;48.666;8.114;2023-03-24T07:20:18;99162.09;;;12.62;93.34
75538;BME280;64121;48.666;8.114;2023-03-24T07:22:45;99160.09;;;12.63;93.59
75538;BME280;64121;48.666;8.114;2023-03-24T07:25:10;99160.56;;;12.65;92.90
75538;BME280;64121;48.666;8.114;2023-03-24T07:27:36;99179.28;;;12.64;92.43
75538;BME280;64121;48.666;8.114;2023-03-24T07:30:01;99178.41;;;12.60;93.10
75538;BME280;64121;48.666;8.114;2023-03-24T07:32:29;99143.75;;;12.61;93.11
75538;BME280;64121;48.666;8.114;2023-03-24T07:34:54;99135.44;;;12.65;93.36
75538;BME280;64121;48.666;8.114;2023-03-24T07:37:19;99162.94;;;12.66;93.13
75538;BME280;64121;48.666;8.114;2023-03-24T07:39:46;99154.19;;;12.68;93.71
75538;BME280;64121;48.666;8.114;2023-03-24T07:42:12;99153.44;;;12.71;93.12
75538;BME280;64121;48.666;8.114;2023-03-24T07:44:37;99147.09;;;12.78;92.14
75538;BME280;64121;48.666;8.114;2023-03-24T07:47:02;99141.94;;;12.80;92.08
75538;BME280;64121;48.666;8.114;2023-03-24T07:49:28;99127.56;;;12.78;92.06
75538;BME280;64121;48.666;8.114;2023-03-24T07:51:53;99112.44;;;12.82;90.99
75538;BME280;64121;48.666;8.114;2023-03-24T07:54:19;99099.34;;;12.86;90.77
75538;BME280;64121;48.666;8.114;2023-03-24T07:56:45;99103.75;;;12.91;89.38
75538;BME280;64121;48.666;8.114;2023-03-24T07:59:11;99111.38;;;12.97;89.54
75538;BME280;64121;48.666;8.114;2023-03-24T08:01:36;99109.44;;;13.01;89.45
75538;BME280;64121;48.666;8.114;2023-03-24T08:04:02;99098.31;;;13.09;88.46
75538;BME280;64121;48.666;8.114;2023-03-24T08:06:27;99090.41;;;13.18;87.76
75538;BME280;64121;48.666;8.114;2023-03-24T08:08:52;99093.31;;;13.32;87.01
75538;BME280;64121;48.666;8.114;2023-03-24T08:11:18;99102.97;;;13.42;85.87
75538;BME280;64121;48.666;8.114;2023-03-24T08:13:44;99105.72;;;13.34;85.85
75538;BME280;64121;48.666;8.114;2023-03-24T08:16:10;99100.91;;;13.31;86.60
75538;BME280;64121;48.666;8.114;2023-03-24T08:18:35;99102.06;;;13.23;86.80
75538;BME280;64121;48.666;8.114;2023-03-24T08:21:01;99115.63;;;13.25;86.74
75538;BME280;64121;48.666;8.114;2023-03-24T08:23:26;99131.88;;;13.16;87.25
75538;BME280;64121;48.666;8.114;2023-03-24T08:25:52;99142.66;;;13.17;86.90
75538;BME280;64121;48.666;8.114;2023-03-24T08:28:17;99144.75;;;13.20;86.98
75538;BME280;64121;48.666;8.114;2023-03-24T08:30:44;99140.69;;;13.18;86.87
75538;BME280;64121;48.666;8.114;2023-03-24T08:33:11;99143.91;;;13.20;86.97
75538;BME280;64121;48.666;8.114;2023-03-24T08:35:36;99150.31;;;13.20;86.91
75538;BME280;64121;48.666;8.114;2023-03-24T08:38:02;99145.94;;;13.23;87.37
75538;BME280;64121;48.666;8.114;2023-03-24T08:40:28;99147.88;;;13.19;87.19
75538;BME280;64121;48.666;8.114;2023-03-24T08:42:55;99137.59;;;13.30;86.21
75538;BME280;64121;48.666;8.114;2023-03-24T08:45:22;99147.97;;;13.29;86.24
75538;BME280;64121;48.666;8.114;2023-03-24T08:47:50;99138.09;;;13.39;85.66
75538;BME280;64121;48.666;8.114;2023-03-24T08:50:16;99139.69;;;13.40;85.57
75538;BME280;64121;48.666;8.114;2023-03-24T08:52:42;99141.72;;;13.43;85.42
75538;BME280;64121;48.666;8.114;2023-03-24T08:55:08;99142.97;;;13.53;84.46
75538;BME280;64121;48.666;8.114;2023-03-24T08:57:33;99150.56;;;13.56;84.25
75538;BME280;64121;48.666;8.114;2023-03-24T08:59:59;99152.16;;;13.57;84.54
75538;BME280;64121;48.666;8.114;2023-03-24T09:02:24;99139.44;;;13.63;84.19
75538;BME280;64121;48.666;8.114;2023-03-24T09:04:51;99139.06;;;13.68;83.38
75538;BME280;64121;48.666;8.114;2023-03-24T09:07:16;99149.47;;;13.71;83.62
75538;BME280;64121;48.666;8.114;2023-03-24T09:09:41;99159.41;;;13.65;84.28
75538;BME280;64121;48.666;8.114;2023-03-24T09:12:07;99162.59;;;13.63;83.65
75538;BME280;64121;48.666;8.114;2023-03-24T09:14:32;99141.03;;;13.64;83.40
75538;BME280;64121;48.666;8.114;2023-03-24T09:16:57;99137.09;;;13.76;82.15
75538;BME280;64121;48.666;8.114;2023-03-24T09:19:23;99155.53;;;13.80;82.86
75538;BME280;64121;48.666;8.114;2023-03-24T09:21:49;99151.53;;;13.81;81.75
75538;BME280;64121;48.666;8.114;2023-03-24T09:24:15;99149.13;;;13.83;82.21
75538;BME280;64121;48.666;8.114;2023-03-24T09:26:40;99135.16;;;13.83;81.46
75538;BME280;64121;48.666;8.114;2023-03-24T09:29:06;99150.75;;;13.88;81.67
75538;BME280;64121;48.666;8.114;2023-03-24T09:31:32;99151.94;;;13.83;81.92
75538;BME280;64121;48.666;8.114;2023-03-24T09:33:57;99145.56;;;13.90;81.63
75538;BME280;64121;48.666;8.114;2023-03-24T09:36:22;99151.56;;;13.88;81.69
75538;BME280;64121;48.666;8.114;2023-03-24T09:38:49;99148.38;;;13.90;81.21
75538;BME280;64121;48.666;8.114;2023-03-24T09:41:16;99150.75;;;13.88;81.68
75538;BME280;64121;48.666;8.114;2023-03-24T09:43:44;99159.94;;;13.88;80.70
75538;BME280;64121;48.666;8.114;2023-03-24T09:46:13;99157.13;;;13.85;81.37
75538;BME280;64121;48.666;8.114;2023-03-24T09:48:42;99157.16;;;13.88;81.35
75538;BME280;64121;48.666;8.114;2023-03-24T09:51:13;99141.22;;;13.96;80.14
75538;BME280;64121;48.666;8.114;2023-03-24T09:53:45;99154.81;;;14.01;80.54
75538;BME280;64121;48.666;8.114;2023-03-24T09:56:17;99151.63;;;13.96;80.17
75538;BME280;64121;48.666;8.114;2023-03-24T09:58:47;99158.84;;;14.07;79.54
75538;BME280;64121;48.666;8.114;2023-03-24T10:01:14;99165.72;;;14.20;79.04
75538;BME280;64121;48.666;8.114;2023-03-24T10:03:41;99168.94;;;14.30;79.21
75538;BME280;64121;48.666;8.114;2023-03-24T10:06:09;99173.03;;;14.46;78.55
75538;BME280;64121;48.666;8.114;2023-03-24T10:08:36;99172.63;;;14.48;77.31
75538;BME280;64121;48.666;8.114;2023-03-24T10:11:12;99178.22;;;14.44;78.42
75538;BME280;64121;48.666;8.114;2023-03-24T10:13:51;99169.06;;;14.51;77.22
75538;BME280;64121;48.666;8.114;2023-03-24T10:16:24;99176.66;;;14.54;76.68
75538;BME280;64121;48.666;8.114;2023-03-24T10:18:57;99170.28;;;14.57;77.17
75538;BME280;64121;48.666;8.114;2023-03-24T10:21:26;99182.66;;;14.56;76.96
75538;BME280;64121;48.666;8.114;2023-03-24T10:23:57;99173.88;;;14.54;76.30
75538;BME280;64121;48.666;8.114;2023-03-24T10:26:32;99188.28;;;14.60;76.73
75538;BME280;64121;48.666;8.114;2023-03-24T10:29:12;99192.69;;;14.64;77.01
75538;BME280;64121;48.666;8.114;2023-03-24T10:31:46;99197.94;;;14.80;76.64
75538;BME280;64121;48.666;8.114;2023-03-24T10:34:12;99196.31;;;14.79;75.81
75538;BME280;64121;48.666;8.114;2023-03-24T10:36:38;99219.53;;;14.87;74.96
75538;BME280;64121;48.666;8.114;2023-03-24T10:39:04;99220.72;;;14.78;75.65
75538;BME280;64121;48.666;8.114;2023-03-24T10:41:31;99229.88;;;14.68;77.16
75538;BME280;64121;48.666;8.114;2023-03-24T10:43:57;99258.19;;;14.45;79.11
75538;BME280;64121;48.666;8.114;2023-03-24T10:46:26;99245.25;;;14.19;82.03
75538;BME280;64121;48.666;8.114;2023-03-24T10:48:53;99241.59;;;14.12;82.80
75538;BME280;64121;48.666;8.114;2023-03-24T10:51:31;99234.38;;;14.07;82.75
75538;BME280;64121;48.666;8.114;2023-03-24T10:54:09;99253.13;;;14.00;84.43
75538;BME280;64121;48.666;8.114;2023-03-24T10:56:40;99255.00;;;13.81;84.74
75538;BME280;64121;48.666;8.114;2023-03-24T10:59:17;99253.28;;;13.70;85.27
75538;BME280;64121;48.666;8.114;2023-03-24T11:01:45;99242.09;;;13.66;86.42
75538;BME280;64121;48.666;8.114;2023-03-24T11:04:13;99235.31;;;13.71;85.82
75538;BME280;64121;48.666;8.114;2023-03-24T11:06:53;99229.00;;;13.77;86.06
75538;BME280;64121;48.666;8.114;2023-03-24T11:09:21;99231.94;;;13.99;85.05
75538;BME280;64121;48.666;8.114;2023-03-24T11:11:47;99229.97;;;14.03;85.23
75538;BME280;64121;48.666;8.114;2023-03-24T11:14:20;99230.84;;;14.14;85.29
75538;BME280;64121;48.666;8.114;2023-03-24T11:16:47;99231.28;;;14.23;85.65
75538;BME280;64121;48.666;8.114;2023-03-24T11:19:18;99230.44;;;14.19;83.96
75538;BME280;64121;48.666;8.114;2023-03-24T11:21:44;99235.63;;;14.13;84.07
75538;BME280;64121;48.666;8.114;2023-03-24T11:24:12;99228.00;;;14.10;84.48
75538;BME280;64121;48.666;8.114;2023-03-24T11:26:39;99221.59;;;14.06;84.75
75538;BME280;64121;48.666;8.114;2023-03-24T11:29:13;99223.97;;;14.01;82.66
75538;BME280;64121;48.666;8.114;2023-03-24T11:31:40;99223.56;;;14.02;83.82
75538;BME280;64121;48.666;8.114;2023-03-24T11:34:09;99235.53;;;13.96;83.09
75538;BME280;64121;48.666;8.114;2023-03-24T11:36:40;99227.94;;;14.00;82.67
75538;BME280;64121;48.666;8.114;2023-03-24T11:39:11;99239.44;;;13.87;82.28
75538;BME280;64121;48.666;8.114;2023-03-24T11:41:38;99239.81;;;13.82;82.37
75538;BME280;64121;48.666;8.114;2023-03-24T11:44:17;99241.34;;;13.73;82.51
75538;BME280;64121;48.666;8.114;2023-03-24T11:46:45;99249.72;;;13.73;83.60
75538;BME280;64121;48.666;8.114;2023-03-24T11:49:17;99243.72;;;13.71;81.95
75538;BME280;64121;48.666;8.114;2023-03-24T11:51:46;99258.75;;;13.55;80.80
75538;BME280;64121;48.666;8.114;2023-03-24T11:54:16;99254.28;;;13.44;82.09
75538;BME280;64121;48.666;8.114;2023-03-24T11:56:44;99249.09;;;13.42;82.35
75538;BME280;64121;48.666;8.114;2023-03-24T11:59:16;99250.22;;;13.38;82.71
75538;BME280;64121;48.666;8.114;2023-03-24T12:01:48;99257.31;;;13.24;82.57
75538;BME280;64121;48.666;8.114;2023-03-24T12:04:27;99271.47;;;13.09;85.46
75538;BME280;64121;48.666;8.114;2023-03-24T12:07:14;99271.66;;;12.89;87.42
75538;BME280;64121;48.666;8.114;2023-03-24T12:09:48;99284.06;;;12.92;87.49
75538;BME280;64121;48.666;8.114;2023-03-24T12:12:27;99283.38;;;13.02;88.67
75538;BME280;64121;48.666;8.114;2023-03-24T12:15:12;99281.81;;;13.04;89.25
75538;BME280;64121;48.666;8.114;2023-03-24T12:17:50;99279.03;;;13.04;88.42
75538;BME280;64121;48.666;8.114;2023-03-24T12:20:25;99277.44;;;13.07;88.63
75538;BME280;64121;48.666;8.114;2023-03-24T12:22:58;99267.88;;;13.08;88.46
75538;BME280;64121;48.666;8.114;2023-03-24T12:25:41;99270.44;;;13.20;87.29
75538;BME280;64121;48.666;8.114;2023-03-24T12:28:24;99262.47;;;13.22;88.67
75538;BME280;64121;48.666;8.114;2023-03-24T12:31:02;99264.16;;;13.34;87.41
75538;BME280;64121;48.666;8.114;2023-03-24T12:33:38;99253.38;;;13.32;88.27
75538;BME280;64121;48.666;8.114;2023-03-24T12:36:21;99253.75;;;13.31;88.20
75538;BME280;64121;48.666;8.114;2023-03-24T12:38:58;99243.00;;;13.33;87.19
75538;BME280;64121;48.666;8.114;2023-03-24T12:41:41;99233.41;;;13.30;86.83
75538;BME280;64121;48.666;8.114;2023-03-24T12:44:23;99230.31;;;13.39;86.65
75538;BME280;64121;48.666;8.114;2023-03-24T12:47:02;99226.72;;;13.42;88.00
75538;BME280;64121;48.666;8.114;2023-03-24T12:49:44;99225.97;;;13.45;86.12
75538;BME280;64121;48.666;8.114;2023-03-24T12:52:29;99222.00;;;13.53;86.64
75538;BME280;64121;48.666;8.114;2023-03-24T12:55:01;99220.88;;;13.58;85.67
75538;BME280;64121;48.666;8.114;2023-03-24T12:57:31;99212.00;;;13.49;86.01
75538;BME280;64121;48.666;8.114;2023-03-24T13:00:00;99230.00;;;13.51;85.91
75538;BME280;64121;48.666;8.114;2023-03-24T13:02:30;99242.19;;;13.32;87.13
75538;BME280;64121;48.666;8.114;2023-03-24T13:05:00;99251.75;;;13.28;88.21
75538;BME280;64121;48.666;8.114;2023-03-24T13:07:28;99263.88;;;13.06;90.54
75538;BME280;64121;48.666;8.114;2023-03-24T13:09:58;99269.06;;;12.40;91.11
75538;BME280;64121;48.666;8.114;2023-03-24T13:12:30;99270.72;;;12.15;91.24
75538;BME280;64121;48.666;8.114;2023-03-24T13:15:00;99272.13;;;12.01;91.72